• Join FlightAware (Why Join?)
  • Login
  • US Flag 
08:43AM EDT


 

Airport Tracker/Info


-or-


 

Live Flight TrackerFlight Track Log ✈ N251NG ✈ 24-Apr-2013 ✈ KTOL - KLOZ

Flight Track Log - Related Links

Times and Time Zones

All times are in EDT time to prevent confusion due to time zone crossing. See the N251NG flight status page for this flight to view local times or setup timezone preferences in your user account.

Time Position Orientation Groundspeed Altitude Reporting Facility
EDT Latitude Longitude Course Direction KTS MPH feet Rate Location/Type
01:25PM 41.5461 -83.8600 180° South 166 191 2,400  Level Cleveland Center
01:26PM 41.5022 -83.8633 183° South 181 208 4,200 1,800 Climbing Cleveland Center
01:27PM 41.4522 -83.8636 180° South 181 208 6,000 1,800 Climbing Cleveland Center
01:28PM 41.4064 -83.8667 183° South 181 208 7,800 1,620 Climbing Cleveland Center
01:29PM 41.3603 -83.8700 183° South 176 203 9,300 1,440 Climbing Cleveland Center
01:30PM 41.2882 -83.8167 180° South  Level FlightAware Approximate
01:30PM 41.3164 -83.8706 181° South 171 197 10,700  Level Cleveland Center
01:31PM 41.2550 -83.8725 181° South 158 182 12,600 1,260 Climbing Indianapolis Center
01:32PM 41.2122 -83.8742 182° South 154 177 14,100 1,320 Climbing Indianapolis Center
01:33PM 41.1636 -83.8769 182° South 150 173 15,400 1,140 Climbing Indianapolis Center
01:34PM 41.1192 -83.8797 183° South 157 181 16,500 1,020 Climbing Indianapolis Center
01:35PM 41.0750 -83.8822 182° South 158 182 17,600 1,020 Climbing Indianapolis Center
01:36PM 41.0389 -83.8836 182° South 138 159 18,700 960 Climbing Indianapolis Center
01:37PM 41.0017 -83.8864 183° South 133 153 19,600 840 Climbing Indianapolis Center
01:38PM 40.9631 -83.8864 180° South 137 158 20,500 840 Climbing Indianapolis Center
01:39PM 40.9206 -83.8894 183° South 131 151 21,400 720 Climbing Indianapolis Center
01:40PM 40.8811 -83.8917 182° South 138 159 22,000 240 Climbing Indianapolis Center
01:41PM 40.8372 -83.8944 183° South 154 177 22,000  Level Indianapolis Center
01:42PM 40.7881 -83.8967 182° South 173 199 22,000  Level Indianapolis Center
01:43PM 40.7367 -83.8983 181° South 181 208 22,000  Level Indianapolis Center
01:45PM 40.6842 -83.9025 183° South 187 215 22,000  Level Indianapolis Center
01:46PM 40.6322 -83.9036 181° South 185 213 22,000  Level Indianapolis Center
01:47PM 40.5794 -83.9081 184° South 190 219 22,000  Level Indianapolis Center
01:48PM 40.5189 -83.9106 182° South 188 216 22,000  Level Indianapolis Center
01:49PM 40.4661 -83.9136 183° South 188 216 22,000  Level Indianapolis Center
01:50PM 40.4136 -83.9150 181° South 187 215 22,000  Level Indianapolis Center
01:51PM 40.3603 -83.9186 183° South 189 217 22,000  Level Indianapolis Center
01:52PM 40.3072 -83.9211 182° South 190 219 22,000  Level Indianapolis Center
01:53PM 40.2547 -83.9244 183° South 188 216 22,000  Level Indianapolis Center
01:54PM 40.2000 -83.9261 181° South 192 221 22,000  Level Indianapolis Center
01:56PM 40.0847 -83.9328 183° South 191 220 22,000  Level Indianapolis Center
01:57PM 40.0311 -83.9358 182° South 192 221 22,000  Level Indianapolis Center
01:58PM 39.9778 -83.9372 181° South 190 219 22,000  Level Indianapolis Center
01:59PM 39.9247 -83.9408 183° South 190 219 22,000  Level Indianapolis Center
02:00PM 39.8711 -83.9442 183° South 192 221 22,000  Level Indianapolis Center
02:01PM 39.8178 -83.9464 182° South 191 220 22,000  Level Indianapolis Center
02:02PM 39.7542 -83.9494 182° South 194 223 22,000  Level Indianapolis Center
02:03PM 39.7014 -83.9528 183° South 190 219 22,000  Level Indianapolis Center
02:04PM 39.6475 -83.9556 182° South 191 220 22,000  Level Indianapolis Center
02:05PM 39.5933 -83.9581 182° South 193 222 22,000  Level Indianapolis Center
02:06PM 39.5381 -83.9611 182° South 196 226 22,000  Level Indianapolis Center
02:07PM 39.4844 -83.9631 182° South 192 221 22,000  Level Indianapolis Center
02:08PM 39.4300 -83.9658 182° South 194 223 22,000  Level Indianapolis Center
02:09PM 39.3761 -83.9678 182° South 192 221 22,000  Level Indianapolis Center
02:10PM 39.3128 -83.9717 183° South 194 223 22,000  Level Indianapolis Center
02:11PM 39.2589 -83.9747 183° South 193 222 22,000  Level Indianapolis Center
02:12PM 39.2050 -83.9775 182° South 193 222 22,000  Level Indianapolis Center
02:13PM 39.1497 -83.9786 181° South 196 226 22,000  Level Indianapolis Center
02:14PM 39.0950 -83.9806 182° South 196 226 22,000  Level Indianapolis Center
02:15PM 39.0411 -83.9839 183° South 193 222 22,000  Level Indianapolis Center
02:16PM 38.9878 -83.9886 184° South 189 217 22,000  Level Indianapolis Center
02:17PM 38.9331 -83.9897 181° South 194 223 22,000  Level Indianapolis Center
02:19PM 38.8692 -83.9953 184° South 196 226 22,000  Level Indianapolis Center
02:20PM 38.8139 -83.9967 181° South 197 227 22,000  Level Indianapolis Center
02:21PM 38.7583 -83.9986 182° South 198 228 22,000  Level Indianapolis Center
02:22PM 38.7036 -84.0017 182° South 197 227 22,000  Level Indianapolis Center
02:23PM 38.6478 -84.0053 183° South 198 228 22,000  Level Indianapolis Center
02:24PM 38.5864 -84.0081 182° South 200 230 22,000  Level Indianapolis Center
02:25PM 38.5306 -84.0097 181° South 203 234 22,000  Level Indianapolis Center
02:26PM 38.4747 -84.0125 182° South 200 230 22,000  Level Indianapolis Center
02:27PM 38.4181 -84.0156 182° South 202 232 22,000  Level Indianapolis Center
02:28PM 38.3622 -84.0178 182° South 203 234 22,000  Level Indianapolis Center
02:29PM 38.3050 -84.0208 182° South 203 234 22,000 -180 Level Indianapolis Center
02:30PM 38.2392 -84.0242 182° South 205 236 21,700 -540 Descending Indianapolis Center
02:31PM 38.1831 -84.0261 182° South 203 234 20,900 -840 Descending Indianapolis Center
02:32PM 38.1267 -84.0283 182° South 204 235 20,000 -1,020 Descending Indianapolis Center
02:33PM 38.0694 -84.0319 183° South 205 236 18,900 -1,080 Descending Indianapolis Center
02:34PM 38.0111 -84.0350 182° South 208 239 17,900 -900 Descending Indianapolis Center
02:35PM 37.9425 -84.0386 182° South 209 241 17,100 -1,080 Descending Indianapolis Center
02:36PM 37.8839 -84.0411 182° South 211 243 15,700 -1,320 Descending Indianapolis Center
02:37PM 37.8250 -84.0450 183° South 211 243 14,400 -1,260 Descending Indianapolis Center
02:38PM 37.7683 -84.0478 182° South 205 236 13,100 -780 Descending Indianapolis Center
02:39PM 37.7211 -84.0475 180° South 166 191 12,800 -1,020 Descending Indianapolis Center
02:40PM 37.6525 -84.0311 169° South 226 260 11,100 -900 Descending Indianapolis Center
02:41PM 37.5919 -84.0131 167° South 224 258 11,000 -60 Descending Indianapolis Center
02:42PM 37.5392 -83.9936 164° South 202 232 11,000 -60 Level Indianapolis Center
02:43PM 37.4875 -83.9772 166° South 194 223 10,900 -1,020 Descending Indianapolis Center
02:44PM 37.4322 -83.9586 165° South 202 232 8,900 -2,280 Descending Indianapolis Center
02:45PM 37.3711 -83.9375 165° South 221 254 6,200 -2,460 Descending Indianapolis Center
02:46PM 37.3006 -83.9136 165° South 225 259 3,900 -1,140 Descending Indianapolis Center
02:47PM 37.2553 -83.8983 165° South 176 203 3,900 -60 Level Indianapolis Center
02:48PM 37.2103 -83.8853 167° South 168 193 3,800 -360 Descending Indianapolis Center
02:49PM 37.1836 -83.9203 226° Southwest 151 174 3,200 -300 Descending Indianapolis Center
02:50PM 37.1589 -83.9608 233° Southwest 147 169 3,200 -240 Level Indianapolis Center
02:51PM 37.1322 -84.0044 233° Southwest 141 162 2,800 -540 Descending Indianapolis Center
02:53PM 37.1122 -84.0336 229° Southwest 127 146 2,100 -720 Descending Indianapolis Center